Time;durP1;ratioP1;P1;durP2;ratioP2;P2;SDS_P1;SDS_P2;PMS_P1;PMS_P2;Temp;Humidity;BMP_temperature;BMP_pressure;BME280_temperature;BME280_humidity;BME280_pressure;Samples;Min_cycle;Max_cycle;Signal;HPM_P1;HPM_P2
2021/07/30 00:02:22;;;;;;;9.77;3.63;;;;;;;;;;5023019;28;20022;-88
2021/07/30 00:04:47;;;;;;;9.70;3.58;;;;;;;;;;5011354;28;20033;-88
2021/07/30 00:07:12;;;;;;;6.18;3.75;;;;;;;;;;5010400;28;20397;-88
2021/07/30 00:09:38;;;;;;;11.23;3.55;;;;;;;;;;5014316;28;20109;-88
2021/07/30 00:12:03;;;;;;;7.28;3.97;;;;;;;;;;5014313;28;20354;-88
2021/07/30 00:14:29;;;;;;;9.93;3.55;;;;;;;;;;5014141;28;20535;-88
2021/07/30 00:16:54;;;;;;;5.95;3.03;;;;;;;;;;5015522;28;20032;-88
2021/07/30 00:19:19;;;;;;;9.85;3.95;;;;;;;;;;5027292;28;20021;-88
2021/07/30 00:21:44;;;;;;;7.15;3.50;;;;;;;;;;5014885;28;20378;-88
2021/07/30 00:24:10;;;;;;;6.88;3.50;;;;;;;;;;5013696;28;20029;-88
2021/07/30 00:26:35;;;;;;;9.63;3.75;;;;;;;;;;5013900;28;20184;-88
2021/07/30 00:29:00;;;;;;;10.27;4.20;;;;;;;;;;5015404;28;20014;-88
2021/07/30 00:31:25;;;;;;;7.07;3.47;;;;;;;;;;5015423;28;20432;-88
2021/07/30 00:33:51;;;;;;;6.65;3.13;;;;;;;;;;5013279;28;20026;-88
2021/07/30 00:36:16;;;;;;;6.38;3.45;;;;;;;;;;5013527;28;20021;-88
2021/07/30 00:38:41;;;;;;;6.03;3.45;;;;;;;;;;5021787;28;20034;-88
2021/07/30 00:41:06;;;;;;;7.22;3.28;;;;;;;;;;5013110;28;20041;-88
2021/07/30 00:43:31;;;;;;;9.55;3.40;;;;;;;;;;5013783;28;20105;-88
2021/07/30 00:45:58;;;;;;;6.18;2.80;;;;;;;;;;5022018;28;20018;-88
2021/07/30 00:48:23;;;;;;;8.30;3.17;;;;;;;;;;5037938;28;20041;-88
2021/07/30 00:50:48;;;;;;;7.47;3.00;;;;;;;;;;5046471;28;20022;-88
2021/07/30 00:53:14;;;;;;;6.90;3.35;;;;;;;;;;5020424;28;20036;-88
2021/07/30 00:55:39;;;;;;;8.38;3.42;;;;;;;;;;5013159;28;20041;-88
2021/07/30 00:58:04;;;;;;;5.97;2.97;;;;;;;;;;5013113;28;20025;-88
2021/07/30 01:00:30;;;;;;;6.93;3.47;;;;;;;;;;5020600;28;20462;-88
2021/07/30 01:02:58;;;;;;;6.53;2.97;;;;;;;;;;5016543;28;20038;-88
2021/07/30 01:05:23;;;;;;;8.40;3.45;;;;;;;;;;5015342;28;20030;-87
2021/07/30 01:07:48;;;;;;;11.10;3.17;;;;;;;;;;5016556;28;20033;-89
2021/07/30 01:10:14;;;;;;;6.97;2.95;;;;;;;;;;5013154;28;20382;-88
2021/07/30 01:12:39;;;;;;;8.40;3.47;;;;;;;;;;5017442;28;20072;-88
2021/07/30 01:15:05;;;;;;;8.75;3.10;;;;;;;;;;5012810;28;20022;-88
2021/07/30 01:17:30;;;;;;;6.20;3.00;;;;;;;;;;5015939;28;20049;-88
2021/07/30 01:19:55;;;;;;;9.18;3.22;;;;;;;;;;5017259;28;20022;-88
2021/07/30 01:22:26;;;;;;;9.45;4.25;;;;;;;;;;5023125;28;20025;-88
2021/07/30 01:24:52;;;;;;;12.65;4.03;;;;;;;;;;5016316;28;20037;-88
2021/07/30 01:27:17;;;;;;;8.65;3.63;;;;;;;;;;5012793;28;20026;-88
2021/07/30 01:29:42;;;;;;;8.18;3.65;;;;;;;;;;5012422;28;20334;-88
2021/07/30 01:32:08;;;;;;;8.13;3.60;;;;;;;;;;5013720;28;20470;-88
2021/07/30 01:34:33;;;;;;;8.02;3.55;;;;;;;;;;5014587;28;20018;-88
2021/07/30 01:36:58;;;;;;;8.88;3.33;;;;;;;;;;5012010;28;20136;-88
2021/07/30 01:39:23;;;;;;;7.45;3.65;;;;;;;;;;5012170;28;20026;-88
2021/07/30 01:41:49;;;;;;;6.90;2.90;;;;;;;;;;5012718;28;20389;-88
2021/07/30 01:44:14;;;;;;;10.25;3.80;;;;;;;;;;5012174;28;20026;-88
2021/07/30 01:46:40;;;;;;;7.53;3.25;;;;;;;;;;5021607;28;20386;-88
2021/07/30 01:49:05;;;;;;;6.70;3.47;;;;;;;;;;5019579;28;20545;-88
2021/07/30 01:51:30;;;;;;;11.05;3.75;;;;;;;;;;5022102;28;20025;-88
2021/07/30 01:53:55;;;;;;;11.85;3.88;;;;;;;;;;5012150;28;20022;-88
2021/07/30 01:56:20;;;;;;;6.90;3.72;;;;;;;;;;5022229;28;20539;-88
2021/07/30 01:58:45;;;;;;;10.18;3.47;;;;;;;;;;5013221;28;20064;-87
2021/07/30 02:01:11;;;;;;;8.80;3.70;;;;;;;;;;5011743;28;20040;-88
2021/07/30 02:03:36;;;;;;;13.02;4.20;;;;;;;;;;5011517;28;20442;-88
2021/07/30 02:06:08;;;;;;;8.00;3.35;;;;;;;;;;5013363;28;20041;-88
2021/07/30 02:08:33;;;;;;;8.70;3.70;;;;;;;;;;5011655;28;20429;-88
2021/07/30 02:10:59;;;;;;;5.45;3.30;;;;;;;;;;5011593;28;20140;-87
2021/07/30 02:16:08;;;;;;;8.52;3.42;;;;;;;;;;5013799;28;20049;-88
2021/07/30 02:18:33;;;;;;;9.00;3.35;;;;;;;;;;5011518;28;20030;-88
2021/07/30 02:20:59;;;;;;;9.73;3.45;;;;;;;;;;5011741;28;20052;-88
2021/07/30 02:23:24;;;;;;;9.35;3.60;;;;;;;;;;5011624;28;20038;-88
2021/07/30 02:25:49;;;;;;;7.07;4.28;;;;;;;;;;5011202;28;20056;-88
2021/07/30 02:28:14;;;;;;;9.80;3.38;;;;;;;;;;5011627;28;20108;-88
2021/07/30 02:30:39;;;;;;;5.30;3.42;;;;;;;;;;5019328;28;20057;-88
2021/07/30 02:33:05;;;;;;;7.25;3.30;;;;;;;;;;5010991;28;20025;-88
2021/07/30 02:35:30;;;;;;;9.38;3.80;;;;;;;;;;5011685;28;20064;-88
2021/07/30 02:37:55;;;;;;;6.88;3.88;;;;;;;;;;5014463;28;20032;-88
2021/07/30 02:40:21;;;;;;;6.35;3.05;;;;;;;;;;5016575;28;20037;-88
2021/07/30 02:42:46;;;;;;;5.45;3.00;;;;;;;;;;5020321;28;20026;-88
2021/07/30 02:45:11;;;;;;;7.45;3.33;;;;;;;;;;5017524;28;20025;-88
2021/07/30 02:47:36;;;;;;;9.35;3.65;;;;;;;;;;5018833;28;20121;-88
2021/07/30 02:50:02;;;;;;;11.40;3.38;;;;;;;;;;5025642;28;20022;-88
2021/07/30 02:52:28;;;;;;;5.53;3.30;;;;;;;;;;5026738;28;20013;-88
2021/07/30 02:54:53;;;;;;;6.22;2.90;;;;;;;;;;5018500;28;20033;-88
2021/07/30 02:57:18;;;;;;;6.47;3.10;;;;;;;;;;5012495;28;20068;-88
2021/07/30 02:59:43;;;;;;;6.70;3.50;;;;;;;;;;5026819;28;20067;-88
2021/07/30 03:02:09;;;;;;;6.28;2.83;;;;;;;;;;5019189;28;20393;-88
2021/07/30 03:04:34;;;;;;;11.13;3.10;;;;;;;;;;5017841;28;20021;-87
2021/07/30 03:06:59;;;;;;;8.07;3.60;;;;;;;;;;5026565;28;20030;-88
2021/07/30 03:09:24;;;;;;;7.88;3.30;;;;;;;;;;5015241;28;20022;-88
2021/07/30 03:11:49;;;;;;;8.73;3.50;;;;;;;;;;5020396;28;20021;-88
2021/07/30 03:14:14;;;;;;;10.23;3.42;;;;;;;;;;5019342;28;20025;-88
2021/07/30 03:16:40;;;;;;;6.50;3.20;;;;;;;;;;5020011;28;20099;-88
2021/07/30 03:19:05;;;;;;;13.20;3.78;;;;;;;;;;5013673;28;20049;-88
2021/07/30 03:21:30;;;;;;;10.02;4.00;;;;;;;;;;5019298;28;20397;-88
2021/07/30 03:23:55;;;;;;;8.90;3.70;;;;;;;;;;5023002;28;20032;-88
2021/07/30 03:26:21;;;;;;;9.07;3.67;;;;;;;;;;5021383;28;20389;-88
2021/07/30 03:28:49;;;;;;;9.80;4.15;;;;;;;;;;5021616;28;20030;-87
2021/07/30 03:31:14;;;;;;;11.50;3.70;;;;;;;;;;5038705;28;20793;-88
2021/07/30 03:33:39;;;;;;;13.75;3.88;;;;;;;;;;5049382;28;20050;-88
2021/07/30 03:36:05;;;;;;;11.27;3.97;;;;;;;;;;5021047;28;20108;-88
2021/07/30 03:38:30;;;;;;;6.57;3.40;;;;;;;;;;5020046;28;20029;-88
2021/07/30 03:40:55;;;;;;;7.53;3.92;;;;;;;;;;5020522;28;20710;-89
2021/07/30 03:43:20;;;;;;;9.52;3.53;;;;;;;;;;5021987;28;20107;-88
2021/07/30 03:45:45;;;;;;;12.27;3.67;;;;;;;;;;5024334;28;20025;-88
2021/07/30 03:48:12;;;;;;;7.32;3.85;;;;;;;;;;5016832;28;20046;-88
2021/07/30 03:50:37;;;;;;;10.57;3.67;;;;;;;;;;5022708;28;20025;-88
2021/07/30 03:53:03;;;;;;;6.47;3.60;;;;;;;;;;5016322;28;20022;-89
2021/07/30 03:55:31;;;;;;;5.95;3.30;;;;;;;;;;5018996;28;20470;-88
2021/07/30 03:57:57;;;;;;;7.95;3.42;;;;;;;;;;5024718;28;20021;-88
2021/07/30 04:00:22;;;;;;;10.23;4.13;;;;;;;;;;5016720;28;20338;-88
2021/07/30 04:02:47;;;;;;;7.65;3.50;;;;;;;;;;5026184;28;20079;-88
2021/07/30 04:05:12;;;;;;;8.65;3.80;;;;;;;;;;5018731;28;20058;-88
2021/07/30 04:07:37;;;;;;;9.85;4.50;;;;;;;;;;5023754;28;20471;-88
2021/07/30 04:10:03;;;;;;;11.27;3.78;;;;;;;;;;5025526;28;20022;-88
2021/07/30 04:12:28;;;;;;;11.65;3.88;;;;;;;;;;5023327;28;20428;-87
2021/07/30 04:14:54;;;;;;;9.23;3.85;;;;;;;;;;5018467;28;20097;-88
2021/07/30 04:17:19;;;;;;;6.30;3.88;;;;;;;;;;5024559;28;20874;-88
2021/07/30 04:19:44;;;;;;;10.13;4.45;;;;;;;;;;5019377;28;20026;-88
2021/07/30 04:22:10;;;;;;;8.73;4.13;;;;;;;;;;5024388;28;20465;-88
2021/07/30 04:24:36;;;;;;;10.48;4.72;;;;;;;;;;5028086;28;20100;-87
2021/07/30 04:27:01;;;;;;;8.85;3.97;;;;;;;;;;5020072;28;20497;-88
2021/07/30 04:29:26;;;;;;;10.23;4.72;;;;;;;;;;5019440;28;20033;-88
2021/07/30 04:31:51;;;;;;;9.80;4.78;;;;;;;;;;5025928;28;20018;-88
2021/07/30 04:34:17;;;;;;;12.43;4.22;;;;;;;;;;5016645;28;20111;-88
2021/07/30 04:36:42;;;;;;;8.10;4.35;;;;;;;;;;5020682;28;20025;-88
2021/07/30 04:39:07;;;;;;;10.77;5.15;;;;;;;;;;5020211;28;20018;-88
2021/07/30 04:41:32;;;;;;;7.53;4.13;;;;;;;;;;5031860;28;20021;-88
2021/07/30 04:43:58;;;;;;;11.52;4.78;;;;;;;;;;5019696;28;20025;-87
2021/07/30 04:46:23;;;;;;;10.90;5.05;;;;;;;;;;5021384;28;20469;-88
2021/07/30 04:48:48;;;;;;;10.20;4.82;;;;;;;;;;5023788;28;20027;-89
2021/07/30 04:51:14;;;;;;;8.20;4.30;;;;;;;;;;5015499;28;20037;-88
2021/07/30 04:53:39;;;;;;;8.43;4.38;;;;;;;;;;5018689;28;20018;-88
2021/07/30 04:56:05;;;;;;;11.13;4.65;;;;;;;;;;5024146;28;20326;-88
2021/07/30 04:58:30;;;;;;;8.63;4.47;;;;;;;;;;5018961;28;20025;-88
2021/07/30 05:00:55;;;;;;;15.80;4.63;;;;;;;;;;5025201;28;20473;-88
2021/07/30 05:03:20;;;;;;;15.55;5.38;;;;;;;;;;5016092;28;20110;-88
2021/07/30 05:05:46;;;;;;;9.48;4.15;;;;;;;;;;5016865;28;20512;-88
2021/07/30 05:08:11;;;;;;;10.15;4.65;;;;;;;;;;5020920;28;20033;-88
2021/07/30 05:10:36;;;;;;;9.82;4.53;;;;;;;;;;5022930;28;20025;-88
2021/07/30 05:13:01;;;;;;;7.68;3.85;;;;;;;;;;5017991;28;20021;-88
2021/07/30 05:15:27;;;;;;;10.18;4.47;;;;;;;;;;5024676;28;20021;-88
2021/07/30 05:17:52;;;;;;;10.55;4.15;;;;;;;;;;5013473;28;20024;-89
2021/07/30 05:20:17;;;;;;;9.65;4.05;;;;;;;;;;5012714;28;20036;-88
2021/07/30 05:22:42;;;;;;;9.25;4.15;;;;;;;;;;5024196;28;20108;-88
2021/07/30 05:25:11;;;;;;;11.43;3.88;;;;;;;;;;5018575;28;20550;-89
2021/07/30 05:27:36;;;;;;;7.22;3.70;;;;;;;;;;5020637;28;20088;-88
2021/07/30 05:30:01;;;;;;;11.13;3.72;;;;;;;;;;5020464;28;20017;-89
2021/07/30 05:32:27;;;;;;;9.60;3.38;;;;;;;;;;5019696;28;20529;-89
2021/07/30 05:34:52;;;;;;;10.73;3.63;;;;;;;;;;5018236;28;20053;-88
2021/07/30 05:37:17;;;;;;;9.38;3.78;;;;;;;;;;5019828;28;20029;-88
2021/07/30 05:39:42;;;;;;;8.40;3.60;;;;;;;;;;5021480;28;20033;-88
2021/07/30 05:42:08;;;;;;;9.73;3.72;;;;;;;;;;5019682;28;20413;-89
2021/07/30 05:44:33;;;;;;;8.07;3.50;;;;;;;;;;5020814;28;20553;-87
2021/07/30 05:46:59;;;;;;;9.25;3.78;;;;;;;;;;5021060;28;20048;-88
2021/07/30 05:49:24;;;;;;;10.20;3.88;;;;;;;;;;5023365;28;20021;-88
2021/07/30 05:51:49;;;;;;;6.78;3.92;;;;;;;;;;5019342;28;20092;-88
2021/07/30 05:54:17;;;;;;;6.88;3.38;;;;;;;;;;5040108;28;20026;-88
2021/07/30 05:56:42;;;;;;;6.50;3.38;;;;;;;;;;5015454;28;20022;-88
2021/07/30 05:59:07;;;;;;;5.13;3.15;;;;;;;;;;5029242;28;20021;-89
2021/07/30 06:01:33;;;;;;;7.30;3.78;;;;;;;;;;5015351;28;20076;-88
2021/07/30 06:03:58;;;;;;;5.85;3.20;;;;;;;;;;5018769;28;20353;-89
2021/07/30 06:06:23;;;;;;;7.93;4.13;;;;;;;;;;5026623;28;20097;-89
2021/07/30 06:08:48;;;;;;;8.40;3.75;;;;;;;;;;5011362;28;20079;-89
2021/07/30 06:11:13;;;;;;;6.38;3.58;;;;;;;;;;5026226;28;20362;-89
2021/07/30 06:13:39;;;;;;;10.93;3.22;;;;;;;;;;5014993;28;20105;-89
2021/07/30 06:16:06;;;;;;;11.32;3.30;;;;;;;;;;5018793;28;20572;-89
2021/07/30 06:18:32;;;;;;;6.28;3.30;;;;;;;;;;5021451;28;20025;-89
2021/07/30 06:20:57;;;;;;;5.75;2.97;;;;;;;;;;5028698;28;20017;-89
2021/07/30 06:23:22;;;;;;;7.00;2.92;;;;;;;;;;5023545;28;20623;-89
2021/07/30 06:25:47;;;;;;;5.07;3.03;;;;;;;;;;5021925;28;20454;-89
2021/07/30 06:28:12;;;;;;;6.70;2.72;;;;;;;;;;5030877;28;20025;-89
2021/07/30 06:30:38;;;;;;;7.20;3.10;;;;;;;;;;5017295;28;20113;-88
2021/07/30 06:33:09;;;;;;;6.57;2.95;;;;;;;;;;5014933;28;20609;-88
2021/07/30 06:35:34;;;;;;;6.45;3.20;;;;;;;;;;5013696;28;20022;-89
2021/07/30 06:38:00;;;;;;;5.65;3.28;;;;;;;;;;5028478;28;20032;-89
2021/07/30 06:40:25;;;;;;;6.10;2.95;;;;;;;;;;5018489;28;20092;-88
2021/07/30 06:42:50;;;;;;;5.72;2.85;;;;;;;;;;5015915;28;20029;-89
2021/07/30 06:45:15;;;;;;;5.00;2.70;;;;;;;;;;5019158;28;20076;-88
2021/07/30 06:47:41;;;;;;;9.05;2.70;;;;;;;;;;5014604;28;20088;-88
2021/07/30 06:50:06;;;;;;;9.35;2.78;;;;;;;;;;5017286;28;20089;-89
2021/07/30 06:52:31;;;;;;;5.20;2.70;;;;;;;;;;5029527;28;20021;-88
2021/07/30 06:54:56;;;;;;;4.38;2.55;;;;;;;;;;5012722;28;20117;-88
2021/07/30 06:57:22;;;;;;;6.55;2.67;;;;;;;;;;5018753;28;20025;-89
2021/07/30 06:59:47;;;;;;;4.97;2.70;;;;;;;;;;5021816;28;20072;-89
2021/07/30 07:02:12;;;;;;;5.20;2.50;;;;;;;;;;5015784;28;20029;-89
2021/07/30 07:04:38;;;;;;;6.25;2.85;;;;;;;;;;5015675;28;20034;-89
2021/07/30 07:07:04;;;;;;;5.75;2.30;;;;;;;;;;5018326;28;20057;-89
2021/07/30 07:09:29;;;;;;;8.18;2.92;;;;;;;;;;5017533;28;20130;-89
2021/07/30 07:11:54;;;;;;;3.55;2.50;;;;;;;;;;5016014;28;20053;-88
2021/07/30 07:14:19;;;;;;;4.85;2.42;;;;;;;;;;5029778;28;20010;-88
2021/07/30 07:16:45;;;;;;;4.97;2.60;;;;;;;;;;5016706;28;20465;-88
2021/07/30 07:19:10;;;;;;;8.63;2.92;;;;;;;;;;5017553;28;20117;-88
2021/07/30 07:21:36;;;;;;;6.07;2.35;;;;;;;;;;5022563;28;20047;-88
2021/07/30 07:24:01;;;;;;;5.93;2.72;;;;;;;;;;5018369;28;20029;-88
2021/07/30 07:26:26;;;;;;;5.88;2.72;;;;;;;;;;5030255;28;20037;-88
2021/07/30 07:28:52;;;;;;;5.15;1.90;;;;;;;;;;5025529;28;20053;-88
2021/07/30 07:31:17;;;;;;;4.15;2.25;;;;;;;;;;5021285;28;20093;-89
2021/07/30 07:33:42;;;;;;;5.57;2.50;;;;;;;;;;5023077;28;20024;-88
2021/07/30 07:36:07;;;;;;;9.15;2.40;;;;;;;;;;5020743;28;20196;-89
2021/07/30 07:38:32;;;;;;;6.22;1.92;;;;;;;;;;5021796;28;20032;-88
2021/07/30 07:40:59;;;;;;;3.42;2.20;;;;;;;;;;5016688;28;20492;-88
2021/07/30 07:43:24;;;;;;;5.07;2.55;;;;;;;;;;5022033;28;20420;-88
2021/07/30 07:45:50;;;;;;;3.72;2.40;;;;;;;;;;5024242;28;20121;-88
2021/07/30 07:48:17;;;;;;;6.88;2.53;;;;;;;;;;5018910;28;20060;-88
2021/07/30 07:50:43;;;;;;;6.97;2.10;;;;;;;;;;5019159;28;20025;-88
2021/07/30 07:53:14;;;;;;;3.30;2.00;;;;;;;;;;5026377;28;20078;-88
2021/07/30 07:55:40;;;;;;;6.50;2.17;;;;;;;;;;5024903;28;20014;-89
2021/07/30 07:58:05;;;;;;;4.97;2.00;;;;;;;;;;5016367;28;20033;-88
2021/07/30 08:00:30;;;;;;;7.95;2.58;;;;;;;;;;5026269;28;20058;-88
2021/07/30 08:02:55;;;;;;;4.47;1.80;;;;;;;;;;5018346;28;20116;-89
2021/07/30 08:05:20;;;;;;;3.28;2.22;;;;;;;;;;5016707;28;20052;-89
2021/07/30 08:07:46;;;;;;;2.40;1.90;;;;;;;;;;5027029;28;20028;-88
2021/07/30 08:10:11;;;;;;;4.55;2.17;;;;;;;;;;5018147;28;20026;-88
2021/07/30 08:12:36;;;;;;;5.72;1.98;;;;;;;;;;5022066;28;20017;-89
2021/07/30 08:15:02;;;;;;;7.45;2.20;;;;;;;;;;5020651;28;20101;-88
2021/07/30 08:17:27;;;;;;;3.67;2.10;;;;;;;;;;5018464;28;20112;-88
2021/07/30 08:19:52;;;;;;;6.65;2.08;;;;;;;;;;5025440;28;20869;-88
2021/07/30 08:22:18;;;;;;;4.32;2.17;;;;;;;;;;5023445;28;20087;-88
2021/07/30 08:24:43;;;;;;;4.97;2.38;;;;;;;;;;5012305;28;20030;-89
2021/07/30 08:27:10;;;;;;;4.78;1.90;;;;;;;;;;5020425;28;20030;-88
2021/07/30 08:29:35;;;;;;;3.45;2.15;;;;;;;;;;5021191;28;20025;-88
2021/07/30 08:32:00;;;;;;;6.05;1.92;;;;;;;;;;5014516;28;20017;-88
2021/07/30 08:34:26;;;;;;;3.78;1.77;;;;;;;;;;5019222;28;20482;-88
2021/07/30 08:36:51;;;;;;;6.20;2.40;;;;;;;;;;5024592;28;20482;-89
2021/07/30 08:39:16;;;;;;;3.88;2.72;;;;;;;;;;5029346;28;20095;-88
2021/07/30 08:41:43;;;;;;;5.00;2.45;;;;;;;;;;5022178;28;20044;-88
2021/07/30 08:44:09;;;;;;;3.03;1.92;;;;;;;;;;5021830;28;20105;-88
2021/07/30 08:46:35;;;;;;;7.68;1.88;;;;;;;;;;5031170;28;20412;-88
2021/07/30 08:49:01;;;;;;;8.23;2.60;;;;;;;;;;5028506;28;20544;-88
2021/07/30 08:51:28;;;;;;;4.88;2.47;;;;;;;;;;5017028;28;20021;-89
2021/07/30 08:53:53;;;;;;;4.45;1.70;;;;;;;;;;5024278;28;20021;-89
2021/07/30 08:56:19;;;;;;;7.30;2.58;;;;;;;;;;5013941;28;20059;-87
2021/07/30 08:58:45;;;;;;;8.30;2.60;;;;;;;;;;5014007;28;20536;-89
2021/07/30 09:01:11;;;;;;;7.68;2.80;;;;;;;;;;5025641;28;20022;-89
2021/07/30 09:03:40;;;;;;;3.92;1.30;;;;;;;;;;5020438;28;20072;-90
2021/07/30 09:06:18;;;;;;;4.72;2.22;;;;;;;;;;5019695;28;20040;-88
2021/07/30 09:08:55;;;;;;;7.95;2.40;;;;;;;;;;5025780;28;20036;-88
2021/07/30 09:11:30;;;;;;;4.55;2.15;;;;;;;;;;5057550;28;20079;-88
2021/07/30 09:13:55;;;;;;;5.10;2.38;;;;;;;;;;5051527;28;20029;-88
2021/07/30 09:16:21;;;;;;;10.48;2.08;;;;;;;;;;5049625;28;20101;-88
2021/07/30 09:18:46;;;;;;;4.63;2.35;;;;;;;;;;5020951;28;20022;-89
2021/07/30 09:21:14;;;;;;;6.65;3.05;;;;;;;;;;5030106;28;20075;-88
2021/07/30 09:23:44;;;;;;;4.65;2.15;;;;;;;;;;5031964;28;20032;-88
2021/07/30 09:26:22;;;;;;;2.05;0.68;;;;;;;;;;5028213;28;20396;-88
2021/07/30 09:28:54;;;;;;;3.55;2.17;;;;;;;;;;5023360;28;20022;-88
2021/07/30 09:31:19;;;;;;;4.63;2.25;;;;;;;;;;5017016;28;20014;-88
2021/07/30 09:33:45;;;;;;;7.40;2.70;;;;;;;;;;5019005;28;20025;-88
2021/07/30 09:36:10;;;;;;;4.85;2.03;;;;;;;;;;5027904;28;20398;-88
2021/07/30 09:38:35;;;;;;;2.53;1.55;;;;;;;;;;5020637;28;20033;-88
2021/07/30 09:41:10;;;;;;;4.07;2.72;;;;;;;;;;5017995;28;20095;-88
2021/07/30 09:43:38;;;;;;;5.90;2.85;;;;;;;;;;5049710;28;20087;-88
2021/07/30 09:46:14;;;;;;;5.88;2.22;;;;;;;;;;5020045;28;20026;-88
2021/07/30 09:48:49;;;;;;;8.00;2.65;;;;;;;;;;5017176;28;20072;-89
2021/07/30 09:51:14;;;;;;;3.53;1.30;;;;;;;;;;5023498;28;20026;-88
2021/07/30 09:53:40;;;;;;;6.95;2.30;;;;;;;;;;5023339;28;20036;-88
2021/07/30 09:56:06;;;;;;;5.00;2.55;;;;;;;;;;5022390;28;20127;-89
2021/07/30 09:58:31;;;;;;;4.28;2.65;;;;;;;;;;5014950;28;20026;-87
2021/07/30 10:00:56;;;;;;;5.70;2.50;;;;;;;;;;5014900;28;20465;-87
2021/07/30 10:03:21;;;;;;;5.85;2.60;;;;;;;;;;5016889;28;20044;-88
2021/07/30 10:05:49;;;;;;;2.63;1.40;;;;;;;;;;5021722;28;20052;-88
2021/07/30 10:08:14;;;;;;;7.22;1.58;;;;;;;;;;5016896;28;20032;-87
2021/07/30 10:10:42;;;;;;;4.10;2.40;;;;;;;;;;5020264;28;20096;-87
2021/07/30 10:13:13;;;;;;;12.82;3.70;;;;;;;;;;5031989;28;20021;-89
2021/07/30 10:15:39;;;;;;;0.60;0.37;;;;;;;;;;5023344;28;20017;-87
2021/07/30 10:18:04;;;;;;;3.15;1.75;;;;;;;;;;5019949;28;20067;-90
2021/07/30 10:20:30;;;;;;;2.97;1.77;;;;;;;;;;5017100;28;20026;-89
2021/07/30 10:22:58;;;;;;;5.53;2.60;;;;;;;;;;5023252;28;20032;-89
2021/07/30 10:25:32;;;;;;;4.60;2.25;;;;;;;;;;5014012;28;20342;-91
2021/07/30 10:28:11;;;;;;;8.85;2.33;;;;;;;;;;5022906;28;20474;-89
2021/07/30 10:30:52;;;;;;;6.93;1.83;;;;;;;;;;5022202;28;20025;-90
2021/07/30 10:33:29;;;;;;;6.15;2.80;;;;;;;;;;5025802;28;20461;-89
2021/07/30 10:35:55;;;;;;;4.50;2.30;;;;;;;;;;5022967;28;20069;-89
2021/07/30 10:38:20;;;;;;;5.90;2.47;;;;;;;;;;5012422;28;20026;-89
2021/07/30 10:41:09;;;;;;;5.88;2.60;;;;;;;;;;5020694;28;20032;-89
2021/07/30 10:43:46;;;;;;;6.35;2.67;;;;;;;;;;5003886;28;20037;-89
2021/07/30 10:46:11;;;;;;;5.75;2.95;;;;;;;;;;5022629;28;20056;-89
2021/07/30 10:48:38;;;;;;;7.32;2.58;;;;;;;;;;5030520;28;20021;-90
2021/07/30 10:51:21;;;;;;;6.78;2.60;;;;;;;;;;5017537;28;20051;-90
2021/07/30 10:53:49;;;;;;;9.57;1.77;;;;;;;;;;5016526;28;20029;-89
2021/07/30 10:56:14;;;;;;;7.13;2.97;;;;;;;;;;5016760;28;20021;-90
2021/07/30 10:58:40;;;;;;;5.70;2.50;;;;;;;;;;5017053;28;20021;-88
2021/07/30 11:01:09;;;;;;;13.85;2.40;;;;;;;;;;5022921;28;20108;-89
2021/07/30 11:03:46;;;;;;;7.40;2.40;;;;;;;;;;5011806;28;20034;-89
2021/07/30 11:06:11;;;;;;;4.40;2.80;;;;;;;;;;5011381;28;20029;-89
2021/07/30 11:08:55;;;;;;;3.45;2.00;;;;;;;;;;5011417;28;20022;-89
2021/07/30 11:11:39;;;;;;;5.82;2.63;;;;;;;;;;5008207;28;20018;-89
2021/07/30 11:14:08;;;;;;;8.23;2.95;;;;;;;;;;5022919;28;20056;-89
2021/07/30 11:16:33;;;;;;;5.03;2.97;;;;;;;;;;5018870;28;20018;-89
2021/07/30 11:19:00;;;;;;;8.93;2.90;;;;;;;;;;5017245;28;20448;-89
2021/07/30 11:21:28;;;;;;;5.82;2.42;;;;;;;;;;5018786;28;20021;-89
2021/07/30 11:23:53;;;;;;;7.15;2.97;;;;;;;;;;5016540;28;20048;-89
2021/07/30 11:26:19;;;;;;;4.13;2.10;;;;;;;;;;5011672;28;20462;-89
2021/07/30 11:28:48;;;;;;;6.93;2.55;;;;;;;;;;5018965;28;20017;-89
2021/07/30 11:31:14;;;;;;;5.28;2.88;;;;;;;;;;5016558;28;20394;-90
2021/07/30 11:33:41;;;;;;;5.63;2.88;;;;;;;;;;5027619;28;20021;-89
2021/07/30 11:36:13;;;;;;;4.70;3.00;;;;;;;;;;5019464;28;20018;-89
2021/07/30 11:38:54;;;;;;;0.93;0.70;;;;;;;;;;5015732;28;20030;-89
2021/07/30 11:41:20;;;;;;;3.15;1.50;;;;;;;;;;5029404;28;20068;-90
2021/07/30 11:43:55;;;;;;;3.15;1.52;;;;;;;;;;5018958;28;20026;-89
2021/07/30 11:46:20;;;;;;;4.13;2.60;;;;;;;;;;5015347;28;20033;-89
2021/07/30 11:48:46;;;;;;;4.07;2.78;;;;;;;;;;5010703;28;20029;-90
2021/07/30 11:51:11;;;;;;;11.68;2.70;;;;;;;;;;5011185;28;20049;-91
2021/07/30 11:53:38;;;;;;;5.07;2.08;;;;;;;;;;5022924;28;20101;-90
2021/07/30 11:56:03;;;;;;;3.35;2.33;;;;;;;;;;5027553;28;20025;-89
2021/07/30 11:58:28;;;;;;;4.18;2.60;;;;;;;;;;5027015;28;20037;-89
2021/07/30 12:01:07;;;;;;;3.55;2.17;;;;;;;;;;5022007;28;20500;-89
2021/07/30 12:03:32;;;;;;;2.47;1.40;;;;;;;;;;5015458;28;20029;-90
2021/07/30 12:06:00;;;;;;;0.95;0.60;;;;;;;;;;5016439;28;20108;-89
2021/07/30 12:08:25;;;;;;;5.00;2.40;;;;;;;;;;5018890;28;20028;-89
2021/07/30 12:10:51;;;;;;;6.15;2.60;;;;;;;;;;5031833;28;20333;-89
2021/07/30 12:13:17;;;;;;;4.03;2.10;;;;;;;;;;5028975;28;20599;-89
2021/07/30 12:15:42;;;;;;;5.78;2.70;;;;;;;;;;5028226;28;20041;-89
2021/07/30 12:18:08;;;;;;;2.17;1.58;;;;;;;;;;5025870;28;20018;-89
2021/07/30 12:20:35;;;;;;;6.25;2.40;;;;;;;;;;5027892;28;20300;-89
2021/07/30 12:23:07;;;;;;;1.63;1.08;;;;;;;;;;5030883;28;20635;-90
2021/07/30 12:25:34;;;;;;;5.80;1.90;;;;;;;;;;5031921;28;20025;-90
2021/07/30 12:28:04;;;;;;;4.18;1.92;;;;;;;;;;5021118;28;20014;-89
2021/07/30 12:30:30;;;;;;;2.05;0.70;;;;;;;;;;5014035;28;20497;-89
2021/07/30 12:32:55;;;;;;;3.33;1.90;;;;;;;;;;5020948;28;20014;-89
2021/07/30 12:35:29;;;;;;;2.88;1.77;;;;;;;;;;5021804;28;20021;-90
2021/07/30 12:38:02;;;;;;;3.10;1.58;;;;;;;;;;5042199;28;20022;-89
2021/07/30 12:40:27;;;;;;;4.65;0.93;;;;;;;;;;5022157;28;20083;-88
2021/07/30 12:43:09;;;;;;;3.17;1.70;;;;;;;;;;5018503;28;20422;-89
2021/07/30 12:45:38;;;;;;;5.57;1.90;;;;;;;;;;5029112;28;20116;-89
2021/07/30 12:48:04;;;;;;;4.00;1.95;;;;;;;;;;5028028;28;20021;-89
2021/07/30 12:50:36;;;;;;;3.08;1.15;;;;;;;;;;5029351;28;20032;-89
2021/07/30 12:53:08;;;;;;;3.30;1.88;;;;;;;;;;5018624;28;20079;-90
2021/07/30 12:55:52;;;;;;;4.20;1.98;;;;;;;;;;5030759;28;20021;-89
2021/07/30 12:58:21;;;;;;;1.77;0.93;;;;;;;;;;5018752;28;20029;-90
2021/07/30 13:00:50;;;;;;;4.00;2.20;;;;;;;;;;5033047;28;20028;-89
2021/07/30 13:03:15;;;;;;;3.10;2.10;;;;;;;;;;5018077;28;20029;-90
2021/07/30 13:05:40;;;;;;;3.80;2.30;;;;;;;;;;5028896;28;20469;-89
2021/07/30 13:08:07;;;;;;;3.25;1.88;;;;;;;;;;5025356;28;20487;-90
2021/07/30 13:10:32;;;;;;;9.35;2.78;;;;;;;;;;5019448;28;20492;-90
2021/07/30 13:12:58;;;;;;;5.28;2.78;;;;;;;;;;5028450;28;20017;-90
2021/07/30 13:15:23;;;;;;;5.57;2.40;;;;;;;;;;5013648;28;20410;-91
2021/07/30 13:17:48;;;;;;;4.93;2.83;;;;;;;;;;5012540;28;20030;-90
2021/07/30 13:20:13;;;;;;;5.88;2.60;;;;;;;;;;5016055;28;20026;-88
2021/07/30 13:22:39;;;;;;;4.40;2.50;;;;;;;;;;5018708;28;20026;-89
2021/07/30 13:25:06;;;;;;;6.78;3.10;;;;;;;;;;5013807;28;20054;-89
2021/07/30 13:27:31;;;;;;;7.70;2.88;;;;;;;;;;5016450;28;20026;-90
2021/07/30 13:29:56;;;;;;;5.80;2.60;;;;;;;;;;5023109;28;20024;-89
2021/07/30 13:32:21;;;;;;;4.80;2.80;;;;;;;;;;5030827;28;20028;-90
2021/07/30 13:34:46;;;;;;;9.10;2.90;;;;;;;;;;5019220;28;20029;-89
2021/07/30 13:37:11;;;;;;;5.32;2.60;;;;;;;;;;5016406;28;20026;-90
2021/07/30 13:39:37;;;;;;;6.38;3.03;;;;;;;;;;5019222;28;20121;-89
2021/07/30 13:42:02;;;;;;;5.93;2.90;;;;;;;;;;5026352;28;20029;-90
2021/07/30 13:44:27;;;;;;;3.90;2.28;;;;;;;;;;5025001;28;20053;-89
2021/07/30 13:46:52;;;;;;;5.10;3.45;;;;;;;;;;5021841;28;20104;-89
2021/07/30 13:49:18;;;;;;;5.53;3.25;;;;;;;;;;5024536;28;20477;-90
2021/07/30 13:51:43;;;;;;;3.38;2.00;;;;;;;;;;5021247;28;20022;-89
2021/07/30 13:54:09;;;;;;;5.40;2.30;;;;;;;;;;5013658;28;20025;-89
2021/07/30 13:56:35;;;;;;;5.35;2.50;;;;;;;;;;5020436;28;21150;-90
2021/07/30 13:59:00;;;;;;;6.40;2.70;;;;;;;;;;5018502;28;20021;-89
2021/07/30 14:01:25;;;;;;;4.53;2.50;;;;;;;;;;5021540;28;20573;-89
2021/07/30 14:03:50;;;;;;;3.97;2.60;;;;;;;;;;5020296;28;20025;-88
2021/07/30 14:06:16;;;;;;;7.00;3.08;;;;;;;;;;5008369;28;20025;-89
2021/07/30 14:08:41;;;;;;;5.75;2.60;;;;;;;;;;5019949;28;20022;-89
2021/07/30 14:11:10;;;;;;;6.38;3.00;;;;;;;;;;5017893;28;20076;-89
2021/07/30 14:13:36;;;;;;;4.45;2.15;;;;;;;;;;5021194;28;20465;-89
2021/07/30 14:16:01;;;;;;;4.15;2.00;;;;;;;;;;5020680;28;20006;-89
2021/07/30 14:18:26;;;;;;;4.65;2.50;;;;;;;;;;5027773;28;20079;-89
2021/07/30 14:20:51;;;;;;;4.05;2.65;;;;;;;;;;5024414;28;20075;-88
2021/07/30 14:23:16;;;;;;;3.72;2.33;;;;;;;;;;5024193;28;20028;-89
2021/07/30 14:25:42;;;;;;;6.13;2.03;;;;;;;;;;5025308;28;20049;-88
2021/07/30 14:28:07;;;;;;;4.65;2.58;;;;;;;;;;5020896;28;20025;-89
2021/07/30 14:30:33;;;;;;;3.65;1.95;;;;;;;;;;5019248;28;20072;-90
2021/07/30 14:32:58;;;;;;;1.45;0.68;;;;;;;;;;5022220;28;20025;-88
2021/07/30 14:35:23;;;;;;;4.60;1.92;;;;;;;;;;5022235;28;20018;-89
2021/07/30 14:37:48;;;;;;;4.00;1.90;;;;;;;;;;5017396;28;20026;-89
2021/07/30 14:40:14;;;;;;;1.95;1.08;;;;;;;;;;5027743;28;20029;-89